createdAt,value
2019-03-01T00:00:33.067Z,100380.81
2019-03-01T00:01:38.220Z,100377.48
2019-03-01T00:02:41.742Z,100379.44
2019-03-01T00:03:46.002Z,100378.63
2019-03-01T00:05:10.714Z,100377.48
2019-03-01T00:06:29.448Z,100370.70
2019-03-01T00:09:38.573Z,100377.82
2019-03-01T00:11:19.572Z,100369.81
2019-03-01T00:12:34.740Z,100369.57
2019-03-01T00:14:04.819Z,100374.27
2019-03-01T00:15:44.006Z,100366.11
2019-03-01T00:17:12.872Z,100366.82
2019-03-01T00:18:25.523Z,100367.15
2019-03-01T00:19:51.342Z,100366.34
2019-03-01T00:21:15.200Z,100367.15
2019-03-01T00:22:40.935Z,100366.34
2019-03-01T00:23:53.797Z,100366.91
2019-03-01T00:25:12.421Z,100368.05
2019-03-01T00:26:37.011Z,100371.03
2019-03-01T00:27:59.746Z,100363.12
2019-03-01T00:29:17.957Z,100360.70
2019-03-01T00:30:41.226Z,100360.37
2019-03-01T00:31:53.321Z,100362.31
2019-03-01T00:33:07.518Z,100358.75
2019-03-01T00:34:38.012Z,100362.31
2019-03-01T00:35:47.005Z,100359.56
2019-03-01T00:37:16.124Z,100358.75
2019-03-01T00:38:28.137Z,100358.19
2019-03-01T00:39:51.168Z,100358.75
2019-03-01T00:41:03.780Z,100357.38
2019-03-01T00:42:16.275Z,100359.80
2019-03-01T00:43:34.777Z,100355.67
2019-03-01T00:44:43.492Z,100355.44
2019-03-01T00:45:47.013Z,100358.99
2019-03-01T00:46:50.542Z,100349.37
2019-03-01T00:47:54.198Z,100346.63
2019-03-01T00:48:57.967Z,100349.13
2019-03-01T00:50:03.940Z,100347.76
2019-03-01T00:51:07.609Z,100347.76
2019-03-01T00:52:11.455Z,100347.19
2019-03-01T00:53:15.056Z,100344.44
2019-03-01T00:54:18.723Z,100352.12
2019-03-01T00:55:22.377Z,100346.63
2019-03-01T00:56:26.162Z,100345.25
2019-03-01T00:57:30.050Z,100340.17
2019-03-01T00:58:33.547Z,100342.26
2019-03-01T00:59:37.092Z,100343.06
2019-03-01T01:00:46.691Z,100338.94
2019-03-01T01:01:50.226Z,100339.17
2019-03-01T01:02:53.817Z,100339.75
2019-03-01T01:03:57.578Z,100336.76
2019-03-01T01:05:02.136Z,100338.13
2019-03-01T01:06:05.651Z,100334.58
2019-03-01T01:07:09.230Z,100334.81
2019-03-01T01:08:12.737Z,100327.47
2019-03-01T01:09:16.282Z,100326.90
2019-03-01T01:10:19.878Z,100323.34
2019-03-01T01:11:23.578Z,100316.14
2019-03-01T01:12:27.058Z,100320.27
2019-03-01T01:13:30.640Z,100321.06
2019-03-01T01:14:34.240Z,100316.14
2019-03-01T01:15:37.991Z,100314.20
2019-03-01T01:16:41.769Z,100318.89
2019-03-01T01:17:45.298Z,100314.77
2019-03-01T01:18:48.930Z,100311.20
2019-03-01T01:19:52.610Z,100314.77
2019-03-01T01:20:56.128Z,100314.52
2019-03-01T01:21:59.859Z,100312.58
2019-03-01T01:23:03.543Z,100307.66
2019-03-01T01:24:07.288Z,100312.91
2019-03-01T01:25:10.988Z,100313.15
2019-03-01T01:26:14.503Z,100304.91
2019-03-01T01:27:18.004Z,100304.09
2019-03-01T01:28:21.532Z,100311.77
2019-03-01T01:29:25.054Z,100308.22
2019-03-01T01:30:28.646Z,100309.59
2019-03-01T01:31:32.273Z,100305.80
2019-03-01T01:32:35.846Z,100298.09
2019-03-01T01:33:39.338Z,100305.23
2019-03-01T01:34:42.935Z,100301.91
2019-03-01T01:35:46.513Z,100300.03
2019-03-01T01:36:50.118Z,100299.16
2019-03-01T01:37:53.702Z,100292.12
2019-03-01T01:38:57.395Z,100301.41
2019-03-01T01:40:01.049Z,100296.48
2019-03-01T01:41:04.692Z,100295.91
2019-03-01T01:42:08.184Z,100292.59
2019-03-01T01:43:11.897Z,100290.41
2019-03-01T01:44:15.402Z,100283.63
2019-03-01T01:45:18.962Z,100290.11
2019-03-01T01:46:22.474Z,100289.03
2019-03-01T01:47:25.968Z,100284.67
2019-03-01T01:48:29.555Z,100280.79
2019-03-01T01:49:33.156Z,100287.09
2019-03-01T01:50:36.728Z,100279.98
2019-03-01T01:51:40.246Z,100280.55
2019-03-01T01:52:43.804Z,100280.79
2019-03-01T01:53:47.426Z,100286.05
2019-03-01T01:54:51.024Z,100279.75
2019-03-01T01:55:54.527Z,100278.38
2019-03-01T01:56:58.062Z,100278.94
2019-03-01T01:58:01.770Z,100277.56
2019-03-01T01:59:05.435Z,100271.83
2019-03-01T02:00:11.952Z,100266.09
2019-03-01T02:01:15.460Z,100275.95
2019-03-01T02:02:19.132Z,100268.27
2019-03-01T02:03:22.787Z,100272.73
2019-03-01T02:04:26.492Z,100268.84
2019-03-01T02:05:30.192Z,100275.72
2019-03-01T02:06:33.772Z,100274.11
2019-03-01T02:07:37.438Z,100274.91
2019-03-01T02:08:41.083Z,100269.98
2019-03-01T02:09:44.631Z,100276.52
2019-03-01T02:10:48.258Z,100269.75
2019-03-01T02:11:51.931Z,100267.80
2019-03-01T02:12:55.488Z,100272.97
2019-03-01T02:13:59.130Z,100265.86
2019-03-01T02:15:02.647Z,100264.81
2019-03-01T02:16:06.201Z,100268.38
2019-03-01T02:17:09.729Z,100267.56
2019-03-01T02:18:13.278Z,100265.38
2019-03-01T02:19:16.791Z,100265.62
2019-03-01T02:20:20.486Z,100261.50
2019-03-01T02:21:23.944Z,100265.38
2019-03-01T02:22:27.483Z,100263.77
2019-03-01T02:23:31.109Z,100258.28
2019-03-01T02:24:34.571Z,100255.77
2019-03-01T02:25:38.163Z,100254.16
2019-03-01T02:26:41.785Z,100248.41
2019-03-01T02:27:46.984Z,100251.16
2019-03-01T02:28:50.710Z,100247.84
2019-03-01T02:29:54.591Z,100239.94
2019-03-01T02:31:01.172Z,100243.48
2019-03-01T02:32:04.844Z,100241.88
2019-03-01T02:33:08.419Z,100244.30
2019-03-01T02:34:11.950Z,100240.50
2019-03-01T02:35:17.761Z,100239.36
2019-03-01T02:36:21.281Z,100238.89
2019-03-01T02:37:24.918Z,100235.81
2019-03-01T02:38:28.479Z,100238.33
2019-03-01T02:39:32.019Z,100237.75
2019-03-01T02:40:38.518Z,100238.56
2019-03-01T02:41:42.205Z,100235.01
2019-03-01T02:42:45.702Z,100238.33
2019-03-01T02:43:49.375Z,100225.95
2019-03-01T02:44:52.892Z,100229.27
2019-03-01T02:45:56.505Z,100234.20
2019-03-01T02:46:59.988Z,100232.34
2019-03-01T02:48:03.724Z,100230.64
2019-03-01T02:49:07.226Z,100232.59
2019-03-01T02:50:12.984Z,100229.84
2019-03-01T02:51:16.541Z,100224.34
2019-03-01T02:52:20.149Z,100222.73
2019-03-01T02:53:23.699Z,100229.61
2019-03-01T02:54:27.217Z,100224.11
2019-03-01T02:55:30.840Z,100225.24
2019-03-01T02:56:34.394Z,100226.62
2019-03-01T02:57:37.988Z,100226.05
2019-03-01T02:58:41.466Z,100225.24
2019-03-01T02:59:45.078Z,100220.28
2019-03-01T03:00:48.597Z,100220.71
2019-03-01T03:01:52.283Z,100223.87
2019-03-01T03:02:55.909Z,100220.85
2019-03-01T03:03:59.403Z,100219.75
2019-03-01T03:05:03.177Z,100223.60
2019-03-01T03:06:08.341Z,100221.59
2019-03-01T03:07:16.079Z,100210.59
2019-03-01T03:08:19.937Z,100216.33
2019-03-01T03:09:23.503Z,100208.98
2019-03-01T03:10:27.171Z,100214.95
2019-03-01T03:11:30.731Z,100213.82
2019-03-01T03:12:34.277Z,100210.84
2019-03-01T03:13:38.214Z,100210.03
2019-03-01T03:14:53.956Z,100210.27
2019-03-01T03:16:00.737Z,100207.52
2019-03-01T03:17:06.787Z,100205.91
2019-03-01T03:18:16.277Z,100203.39
2019-03-01T03:19:19.788Z,100206.14
2019-03-01T03:20:23.355Z,100208.32
2019-03-01T03:21:27.075Z,100202.25
2019-03-01T03:22:30.632Z,100197.33
2019-03-01T03:23:34.149Z,100204.67
2019-03-01T03:24:37.723Z,100201.12
2019-03-01T03:25:41.258Z,100204.44
2019-03-01T03:26:44.832Z,100201.12
2019-03-01T03:27:48.330Z,100194.25
2019-03-01T03:28:51.849Z,100197.56
2019-03-01T03:29:55.658Z,100198.03
2019-03-01T03:31:00.923Z,100199.41
2019-03-01T03:32:06.174Z,100199.41
2019-03-01T03:33:09.659Z,100200.78
2019-03-01T03:34:14.381Z,100199.64
2019-03-01T03:35:17.887Z,100198.03
2019-03-01T03:36:21.403Z,100196.66
2019-03-01T03:37:25.649Z,100200.78
2019-03-01T03:38:29.155Z,100195.29
2019-03-01T03:39:32.864Z,100191.27
2019-03-01T03:40:36.434Z,100196.19
2019-03-01T03:41:42.879Z,100190.69
2019-03-01T03:42:46.464Z,100191.27
2019-03-01T03:43:50.065Z,100191.27
2019-03-01T03:44:53.979Z,100192.06
2019-03-01T03:45:57.484Z,100192.06
2019-03-01T03:47:00.989Z,100192.63
2019-03-01T03:48:04.664Z,100191.83
2019-03-01T03:49:08.210Z,100193.20
2019-03-01T03:50:13.745Z,100195.38
2019-03-01T03:51:17.420Z,100188.28
2019-03-01T03:52:20.999Z,100186.09
2019-03-01T03:53:24.525Z,100190.22
2019-03-01T03:54:28.040Z,100188.28
2019-03-01T03:55:31.677Z,100192.16
2019-03-01T03:56:35.251Z,100195.72
2019-03-01T03:57:38.978Z,100188.28
2019-03-01T03:58:42.676Z,100182.87
2019-03-01T03:59:46.191Z,100186.66
2019-03-01T04:00:50.023Z,100190.22
2019-03-01T04:01:53.645Z,100188.04
2019-03-01T04:02:57.238Z,100187.47
2019-03-01T04:04:00.848Z,100191.36
2019-03-01T04:05:06.073Z,100188.84
2019-03-01T04:06:09.721Z,100193.20
2019-03-01T04:07:13.365Z,100192.06
2019-03-01T04:08:16.952Z,100192.20
2019-03-01T04:09:20.584Z,100191.41
2019-03-01T04:10:24.098Z,100194.86
2019-03-01T04:11:27.675Z,100184.33
2019-03-01T04:12:31.533Z,100188.39
2019-03-01T04:13:35.036Z,100186.02
2019-03-01T04:14:38.576Z,100186.95
2019-03-01T04:15:42.199Z,100184.44
2019-03-01T04:16:45.924Z,100192.75
2019-03-01T04:17:49.669Z,100191.65
2019-03-01T04:18:53.375Z,100188.23
2019-03-01T04:19:56.914Z,100189.90
2019-03-01T04:21:00.408Z,100191.57
2019-03-01T04:22:04.070Z,100190.25
2019-03-01T04:23:07.615Z,100192.69
2019-03-01T04:24:11.504Z,100189.42
2019-03-01T04:25:15.351Z,100189.91
2019-03-01T04:26:18.832Z,100186.98
2019-03-01T04:27:22.357Z,100181.86
2019-03-01T04:28:25.893Z,100177.43
2019-03-01T04:29:33.104Z,100180.01
2019-03-01T04:30:36.646Z,100187.70
2019-03-01T04:31:40.150Z,100184.73
2019-03-01T04:32:43.709Z,100183.74
2019-03-01T04:33:47.236Z,100178.61
2019-03-01T04:34:50.791Z,100183.90
2019-03-01T04:35:54.366Z,100180.23
2019-03-01T04:36:57.973Z,100177.62
2019-03-01T04:38:01.468Z,100179.58
2019-03-01T04:39:06.919Z,100177.73
2019-03-01T04:40:15.254Z,100178.77
2019-03-01T04:41:18.766Z,100173.48
2019-03-01T04:42:22.289Z,100176.51
2019-03-01T04:43:25.779Z,100173.03
2019-03-01T04:44:29.354Z,100179.95
2019-03-01T04:45:32.871Z,100177.08
2019-03-01T04:46:36.416Z,100178.58
2019-03-01T04:47:39.945Z,100180.18
2019-03-01T04:48:43.937Z,100175.59
2019-03-01T04:49:48.226Z,100175.59
2019-03-01T04:50:51.751Z,100170.77
2019-03-01T04:51:55.555Z,100172.60
2019-03-01T04:52:59.070Z,100168.92
2019-03-01T04:54:02.620Z,100168.92
2019-03-01T04:55:09.218Z,100165.25
2019-03-01T04:56:12.944Z,100168.01
2019-03-01T04:57:16.572Z,100179.84
2019-03-01T04:58:20.137Z,100175.36
2019-03-01T04:59:24.047Z,100170.42
2019-03-01T05:00:27.749Z,100171.91
2019-03-01T05:01:31.451Z,100170.08
2019-03-01T05:02:35.031Z,100165.39
2019-03-01T05:03:38.743Z,100165.39
2019-03-01T05:04:42.309Z,100169.19
2019-03-01T05:05:45.864Z,100169.41
2019-03-01T05:06:51.069Z,100169.41
2019-03-01T05:07:54.695Z,100169.88
2019-03-01T05:08:58.206Z,100166.89
2019-03-01T05:10:01.694Z,100163.90
2019-03-01T05:11:05.290Z,100168.03
2019-03-01T05:12:08.947Z,100162.87
2019-03-01T05:13:12.502Z,100171.02
2019-03-01T05:14:16.046Z,100171.02
2019-03-01T05:15:21.585Z,100163.09
2019-03-01T05:16:25.328Z,100167.69
2019-03-01T05:17:28.890Z,100167.69
2019-03-01T05:18:32.565Z,100169.53
2019-03-01T05:19:36.073Z,100170.91
2019-03-01T05:20:39.644Z,100172.17
2019-03-01T05:21:43.187Z,100171.02
2019-03-01T05:22:46.756Z,100169.27
2019-03-01T05:23:50.273Z,100176.50
2019-03-01T05:24:53.787Z,100176.50
2019-03-01T05:25:57.348Z,100181.56
2019-03-01T05:27:00.934Z,100180.30
2019-03-01T05:28:04.573Z,100182.48
2019-03-01T05:29:08.208Z,100184.43
2019-03-01T05:30:14.820Z,100182.25
2019-03-01T05:31:18.419Z,100185.13
2019-03-01T05:32:21.970Z,100187.53
2019-03-01T05:33:25.674Z,100182.59
2019-03-01T05:34:29.328Z,100181.79
2019-03-01T05:35:33.037Z,100179.49
2019-03-01T05:36:36.626Z,100187.77
2019-03-01T05:37:40.584Z,100185.69
2019-03-01T05:38:44.587Z,100185.13
2019-03-01T05:39:48.467Z,100186.73
2019-03-01T05:40:52.051Z,100190.41
2019-03-01T05:41:55.613Z,100188.68
2019-03-01T05:42:59.237Z,100194.53
2019-03-01T05:44:02.801Z,100188.08
2019-03-01T05:45:18.088Z,100187.27
2019-03-01T05:46:21.606Z,100194.50
2019-03-01T05:47:25.267Z,100190.48
2019-03-01T05:48:28.767Z,100193.01
2019-03-01T05:49:32.275Z,100194.38
2019-03-01T05:50:35.850Z,100194.38
2019-03-01T05:51:39.344Z,100192.55
2019-03-01T05:52:42.944Z,100190.91
2019-03-01T05:53:46.531Z,100194.00
2019-03-01T05:54:53.306Z,100197.09
2019-03-01T05:55:56.870Z,100198.48
2019-03-01T05:57:00.407Z,100198.48
2019-03-01T05:58:21.750Z,100197.33
2019-03-01T05:59:25.413Z,100203.30
2019-03-01T06:00:28.912Z,100203.56
2019-03-01T06:01:35.760Z,100201.92
2019-03-01T06:02:42.450Z,100203.30
2019-03-01T06:04:00.702Z,100203.88
2019-03-01T06:05:06.613Z,100206.74
2019-03-01T06:06:13.215Z,100206.74
2019-03-01T06:07:46.653Z,100207.89
2019-03-01T06:09:26.273Z,100206.05
2019-03-01T06:10:41.663Z,100206.73
2019-03-01T06:11:53.765Z,100213.62
2019-03-01T06:13:22.716Z,100215.80
2019-03-01T06:14:51.501Z,100215.00
2019-03-01T06:15:58.046Z,100210.87
2019-03-01T06:17:13.126Z,100211.33
2019-03-01T06:18:44.904Z,100212.36
2019-03-01T06:19:54.474Z,100206.05
2019-03-01T06:21:06.664Z,100212.02
2019-03-01T06:22:16.197Z,100211.79
2019-03-01T06:23:28.681Z,100207.31
2019-03-01T06:24:38.025Z,100209.03
2019-03-01T06:25:53.371Z,100209.03
2019-03-01T06:27:16.628Z,100211.22
2019-03-01T06:28:34.583Z,100215.69
2019-03-01T06:29:59.908Z,100219.36
2019-03-01T06:31:24.444Z,100217.52
2019-03-01T06:32:42.292Z,100220.50
2019-03-01T06:33:58.075Z,100215.65
2019-03-01T06:35:13.689Z,100222.45
2019-03-01T06:36:29.461Z,100222.58
2019-03-01T06:37:41.663Z,100222.58
2019-03-01T06:39:04.776Z,100225.10
2019-03-01T06:40:36.765Z,100221.77
2019-03-01T06:41:43.298Z,100220.63
2019-03-01T06:42:49.965Z,100223.95
2019-03-01T06:44:08.752Z,100224.30
2019-03-01T06:45:23.941Z,100219.59
2019-03-01T06:46:56.200Z,100224.88
2019-03-01T06:50:26.702Z,100223.68
2019-03-01T06:51:30.656Z,100227.81
2019-03-01T06:52:34.179Z,100224.83
2019-03-01T06:53:37.699Z,100226.67
2019-03-01T06:55:44.815Z,100233.32
2019-03-01T06:56:48.370Z,100233.81
2019-03-01T06:57:51.897Z,100236.80
2019-03-01T06:58:55.837Z,100235.89
2019-03-01T06:59:59.343Z,100240.02
2019-03-01T07:01:04.651Z,100238.07
2019-03-01T07:02:08.535Z,100241.40
2019-03-01T07:03:12.206Z,100234.74
2019-03-01T07:04:15.958Z,100241.06
2019-03-01T07:05:19.487Z,100238.64
2019-03-01T07:06:23.306Z,100242.77
2019-03-01T07:07:26.879Z,100245.30
2019-03-01T07:08:30.442Z,100248.05
2019-03-01T07:09:33.933Z,100240.36
2019-03-01T07:10:37.451Z,100246.78
2019-03-01T07:11:41.027Z,100245.06
2019-03-01T07:12:44.616Z,100254.70
2019-03-01T07:13:48.203Z,100251.61
2019-03-01T07:14:51.689Z,100253.22
2019-03-01T07:15:55.231Z,100257.35
2019-03-01T07:16:58.823Z,100247.84
2019-03-01T07:18:04.323Z,100260.23
2019-03-01T07:19:07.944Z,100260.23
2019-03-01T07:20:12.687Z,100257.70
2019-03-01T07:21:16.418Z,100260.47
2019-03-01T07:22:20.006Z,100256.78
2019-03-01T07:23:23.552Z,100261.15
2019-03-01T07:24:31.884Z,100257.35
2019-03-01T07:25:35.396Z,100262.06
2019-03-01T07:26:46.375Z,100265.16
2019-03-01T07:27:49.882Z,100261.59
2019-03-01T07:28:53.505Z,100259.72
2019-03-01T07:29:57.084Z,100262.02
2019-03-01T07:31:41.302Z,100260.14
2019-03-01T07:32:44.854Z,100263.39
2019-03-01T07:33:48.420Z,100263.39
2019-03-01T07:36:16.857Z,100268.90
2019-03-01T07:37:21.970Z,100271.66
2019-03-01T07:38:26.162Z,100271.66
2019-03-01T07:39:29.739Z,100272.77
2019-03-01T07:40:35.652Z,100279.66
2019-03-01T07:41:39.182Z,100274.14
2019-03-01T07:42:42.661Z,100282.75
2019-03-01T07:43:46.249Z,100288.26
2019-03-01T07:44:49.745Z,100289.97
2019-03-01T07:45:53.290Z,100285.38
2019-03-01T07:46:58.220Z,100286.75
2019-03-01T07:48:01.806Z,100285.72
2019-03-01T07:49:05.510Z,100284.34
2019-03-01T07:50:11.866Z,100290.42
2019-03-01T07:51:15.391Z,100289.72
2019-03-01T07:52:19.284Z,100290.06
2019-03-01T07:53:22.791Z,100293.15
2019-03-01T07:54:26.358Z,100289.09
2019-03-01T07:55:29.856Z,100298.84
2019-03-01T07:56:37.008Z,100291.72
2019-03-01T07:57:39.083Z,100294.00
2019-03-01T07:58:42.920Z,100294.81
2019-03-01T07:59:46.477Z,100301.46
2019-03-01T08:00:53.572Z,100297.91
2019-03-01T08:01:55.989Z,100308.92
2019-03-01T08:02:59.641Z,100308.69
2019-03-01T08:04:03.207Z,100309.83
2019-03-01T08:05:10.170Z,100314.53
2019-03-01T08:06:14.326Z,100305.88
2019-03-01T08:07:20.438Z,100318.27
2019-03-01T08:08:23.174Z,100316.65
2019-03-01T08:09:26.771Z,100316.86
2019-03-01T08:10:33.017Z,100319.38
2019-03-01T08:11:36.580Z,100315.91
2019-03-01T08:12:42.345Z,100318.53
2019-03-01T08:13:45.540Z,100322.73
2019-03-01T08:14:49.046Z,100321.45
2019-03-01T08:15:52.626Z,100321.89
2019-03-01T08:16:56.797Z,100321.66
2019-03-01T08:18:00.654Z,100325.22
2019-03-01T08:19:04.591Z,100327.50
2019-03-01T08:20:11.350Z,100330.25
2019-03-01T08:21:15.154Z,100334.14
2019-03-01T08:22:24.909Z,100331.96
2019-03-01T08:23:37.517Z,100331.48
2019-03-01T08:24:42.760Z,100335.34
2019-03-01T08:25:46.466Z,100337.39
2019-03-01T08:26:49.951Z,100339.34
2019-03-01T08:27:53.530Z,100336.92
2019-03-01T08:28:58.429Z,100334.50
2019-03-01T08:30:02.325Z,100341.14
2019-03-01T08:31:05.947Z,100341.48
2019-03-01T08:32:09.519Z,100343.19
2019-03-01T08:33:13.161Z,100337.45
2019-03-01T08:34:18.673Z,100345.23
2019-03-01T08:35:25.382Z,100349.93
2019-03-01T08:36:27.475Z,100352.11
2019-03-01T08:37:30.987Z,100353.22
2019-03-01T08:38:34.495Z,100358.72
2019-03-01T08:39:39.731Z,100354.59
2019-03-01T08:40:46.601Z,100357.61
2019-03-01T08:41:49.136Z,100361.98
2019-03-01T08:42:52.636Z,100361.41
2019-03-01T08:43:56.206Z,100372.65
2019-03-01T08:44:59.789Z,100366.58
2019-03-01T08:46:34.585Z,100367.86
2019-03-01T08:48:02.980Z,100373.27
2019-03-01T08:49:10.071Z,100371.89
2019-03-01T08:50:14.080Z,100375.34
2019-03-01T08:51:17.596Z,100375.82
2019-03-01T08:52:21.106Z,100376.33
2019-03-01T08:53:24.611Z,100374.14
2019-03-01T08:54:28.145Z,100382.44
2019-03-01T08:55:32.144Z,100385.56
2019-03-01T08:56:35.632Z,100378.35
2019-03-01T08:57:44.275Z,100378.52
2019-03-01T08:58:44.515Z,100378.33
2019-03-01T08:59:48.017Z,100372.39
2019-03-01T09:00:59.297Z,100371.14
2019-03-01T09:01:57.940Z,100373.26
2019-03-01T09:03:09.915Z,100385.21
2019-03-01T09:04:30.416Z,100375.70
2019-03-01T09:05:36.876Z,100389.04
2019-03-01T09:06:41.780Z,100386.28
2019-03-01T09:07:45.561Z,100389.54
2019-03-01T09:08:54.034Z,100395.85
2019-03-01T09:10:01.020Z,100388.63
2019-03-01T09:11:05.590Z,100396.89
2019-03-01T09:12:09.978Z,100399.08
2019-03-01T09:13:13.514Z,100397.13
2019-03-01T09:14:17.077Z,100400.92
2019-03-01T09:15:20.806Z,100405.86
2019-03-01T09:16:25.268Z,100407.81
2019-03-01T09:17:28.900Z,100406.77
2019-03-01T09:18:33.959Z,100406.77
2019-03-01T09:19:38.192Z,100411.14
2019-03-01T09:20:41.748Z,100414.36
2019-03-01T09:21:49.940Z,100409.66
2019-03-01T09:22:51.086Z,100416.20
2019-03-01T09:23:55.169Z,100417.11
2019-03-01T09:24:58.694Z,100423.09
2019-03-01T09:26:02.337Z,100420.34
2019-03-01T09:27:05.936Z,100421.48
2019-03-01T09:28:09.718Z,100424.23
2019-03-01T09:29:18.376Z,100428.13
2019-03-01T09:30:21.145Z,100430.41
2019-03-01T09:31:24.630Z,100432.94
2019-03-01T09:32:30.439Z,100436.59
2019-03-01T09:33:33.523Z,100437.97
2019-03-01T09:34:37.109Z,100438.78
2019-03-01T09:35:49.903Z,100443.48
2019-03-01T09:36:54.724Z,100447.95
2019-03-01T09:37:58.785Z,100447.14
2019-03-01T09:39:02.644Z,100446.87
2019-03-01T09:40:06.710Z,100446.87
2019-03-01T09:41:10.340Z,100444.63
2019-03-01T09:42:15.602Z,100446.80
2019-03-01T09:43:19.606Z,100454.26
2019-03-01T09:44:23.229Z,100458.05
2019-03-01T09:45:35.889Z,100448.41
2019-03-01T09:46:32.420Z,100454.16
2019-03-01T09:47:36.935Z,100461.62
2019-03-01T09:48:41.281Z,100458.30
2019-03-01T09:49:45.188Z,100458.63
2019-03-01T09:50:48.832Z,100468.50
2019-03-01T09:51:52.382Z,100463.33
2019-03-01T09:52:58.965Z,100469.98
2019-03-01T09:54:01.282Z,100463.09
2019-03-01T09:55:07.237Z,100469.17
2019-03-01T09:56:14.313Z,100465.28
2019-03-01T09:57:17.874Z,100473.11
2019-03-01T09:58:21.642Z,100472.77
2019-03-01T09:59:25.154Z,100469.92
2019-03-01T10:00:37.406Z,100480.94
2019-03-01T10:01:41.073Z,100481.74
2019-03-01T10:02:44.697Z,100481.74
2019-03-01T10:03:48.832Z,100485.06
2019-03-01T10:04:52.415Z,100490.00
2019-03-01T10:05:55.939Z,100487.82
2019-03-01T10:06:59.550Z,100486.78
2019-03-01T10:08:07.681Z,100492.28
2019-03-01T10:09:11.669Z,100496.98
2019-03-01T10:10:20.918Z,100489.62
2019-03-01T10:11:24.409Z,100496.28
2019-03-01T10:12:27.941Z,100496.28
2019-03-01T10:13:31.528Z,100499.03
2019-03-01T10:14:35.101Z,100497.42
2019-03-01T10:15:38.775Z,100495.00
2019-03-01T10:16:42.355Z,100499.13
2019-03-01T10:17:46.001Z,100499.70
2019-03-01T10:18:52.609Z,100499.47
2019-03-01T10:19:56.207Z,100500.58
2019-03-01T10:20:59.710Z,100505.84
2019-03-01T10:22:03.460Z,100516.05
2019-03-01T10:23:06.983Z,100510.88
2019-03-01T10:24:10.534Z,100515.34
2019-03-01T10:25:18.101Z,100514.53
2019-03-01T10:26:21.694Z,100513.49
2019-03-01T10:27:25.160Z,100513.83
2019-03-01T10:28:34.262Z,100509.69
2019-03-01T10:29:37.815Z,100510.59
2019-03-01T10:30:41.462Z,100519.09
2019-03-01T10:33:08.005Z,100526.22
2019-03-01T10:34:11.566Z,100518.77
2019-03-01T10:35:17.058Z,100519.09
2019-03-01T10:36:20.539Z,100519.57
2019-03-01T10:37:24.526Z,100528.06
2019-03-01T10:38:30.040Z,100531.06
2019-03-01T10:39:34.822Z,100525.55
2019-03-01T10:40:38.447Z,100525.55
2019-03-01T10:41:41.936Z,100527.50
2019-03-01T10:42:45.544Z,100531.63
2019-03-01T10:43:49.161Z,100533.91
2019-03-01T10:44:52.691Z,100531.72
2019-03-01T10:45:56.362Z,100531.48
2019-03-01T10:46:59.936Z,100528.50
2019-03-01T10:48:03.549Z,100530.20
2019-03-01T10:49:07.281Z,100532.72
2019-03-01T10:50:12.311Z,100534.39
2019-03-01T10:51:15.861Z,100534.16
2019-03-01T10:52:19.457Z,100535.53
2019-03-01T10:53:23.050Z,100541.61
2019-03-01T10:54:26.621Z,100541.94
2019-03-01T10:55:30.194Z,100547.20
2019-03-01T10:56:33.763Z,100549.72
2019-03-01T10:57:37.356Z,100548.34
2019-03-01T10:58:40.860Z,100558.22
2019-03-01T10:59:44.481Z,100551.91
2019-03-01T11:00:48.131Z,100557.98
2019-03-01T11:01:51.684Z,100552.48
2019-03-01T11:02:56.348Z,100565.20
2019-03-01T11:03:59.960Z,100565.20
2019-03-01T11:05:03.830Z,100560.83
2019-03-01T11:06:07.429Z,100554.28
2019-03-01T11:07:11.066Z,100559.22
2019-03-01T11:08:14.580Z,100561.16
2019-03-01T11:09:18.185Z,100564.81
2019-03-01T11:10:27.305Z,100565.86
2019-03-01T11:11:30.794Z,100567.23
2019-03-01T11:12:34.334Z,100565.05
2019-03-01T11:13:37.981Z,100563.44
2019-03-01T11:14:41.510Z,100564.58
2019-03-01T11:15:45.049Z,100564.34
2019-03-01T11:16:48.589Z,100564.34
2019-03-01T11:17:52.093Z,100566.28
2019-03-01T11:18:55.672Z,100565.20
2019-03-01T11:19:59.237Z,100567.39
2019-03-01T11:21:02.788Z,100567.14
2019-03-01T11:22:06.347Z,100570.47
2019-03-01T11:23:10.027Z,100569.42
2019-03-01T11:24:13.592Z,100570.80
2019-03-01T11:25:19.131Z,100570.23
2019-03-01T11:26:22.690Z,100573.88
2019-03-01T11:27:26.290Z,100575.26
2019-03-01T11:28:29.952Z,100577.20
2019-03-01T11:29:33.538Z,100570.65
2019-03-01T11:30:37.814Z,100569.27
2019-03-01T11:31:41.318Z,100572.35
2019-03-01T11:32:45.106Z,100570.98
2019-03-01T11:33:48.715Z,100567.51
2019-03-01T11:34:52.221Z,100573.25
2019-03-01T11:35:55.782Z,100577.62
2019-03-01T11:36:59.347Z,100577.14
2019-03-01T11:38:03.107Z,100580.46
2019-03-01T11:39:06.850Z,100576.09
2019-03-01T11:40:13.380Z,100575.05
2019-03-01T11:41:18.937Z,100582.97
2019-03-01T11:42:22.403Z,100583.30
2019-03-01T11:43:26.039Z,100583.84
2019-03-01T11:44:29.615Z,100580.55
2019-03-01T11:45:33.475Z,100586.92
2019-03-01T11:46:37.126Z,100582.22
2019-03-01T11:47:40.645Z,100584.73
2019-03-01T11:48:44.149Z,100587.01
2019-03-01T11:49:47.630Z,100581.41
2019-03-01T11:50:51.144Z,100589.10
2019-03-01T11:51:54.715Z,100585.78
2019-03-01T11:52:58.389Z,100583.30
2019-03-01T11:54:01.896Z,100582.73
2019-03-01T11:55:07.410Z,100585.48
2019-03-01T11:56:10.987Z,100591.80
2019-03-01T11:57:14.628Z,100588.23
2019-03-01T11:58:18.247Z,100584.34
2019-03-01T11:59:21.708Z,100588.72
2019-03-01T12:00:26.145Z,100586.77
2019-03-01T12:01:29.778Z,100595.84
2019-03-01T12:02:33.293Z,100588.72
2019-03-01T12:03:36.791Z,100588.48
2019-03-01T12:04:40.431Z,100590.09
2019-03-01T12:05:44.117Z,100592.28
2019-03-01T12:06:47.680Z,100591.47
2019-03-01T12:07:51.570Z,100590.09
2019-03-01T12:08:55.257Z,100594.46
2019-03-01T12:09:58.784Z,100592.03
2019-03-01T12:11:02.356Z,100594.79
2019-03-01T12:12:05.988Z,100594.79
2019-03-01T12:13:09.595Z,100597.45
2019-03-01T12:14:13.100Z,100591.70
2019-03-01T12:15:16.834Z,100589.67
2019-03-01T12:16:20.381Z,100587.73
2019-03-01T12:17:23.942Z,100590.48
2019-03-01T12:18:27.539Z,100590.72
2019-03-01T12:19:31.037Z,100594.28
2019-03-01T12:20:34.603Z,100592.34
2019-03-01T12:21:38.189Z,100597.03
2019-03-01T12:22:41.706Z,100595.66
2019-03-01T12:23:45.241Z,100594.28
2019-03-01T12:24:48.778Z,100594.61
2019-03-01T12:25:52.362Z,100594.85
2019-03-01T12:26:55.849Z,100591.05
2019-03-01T12:27:59.404Z,100597.36
2019-03-01T12:29:02.996Z,100597.13
2019-03-01T12:30:18.250Z,100596.55
2019-03-01T12:31:21.744Z,100595.84
2019-03-01T12:32:25.378Z,100601.25
2019-03-01T12:33:28.899Z,100604.48
2019-03-01T12:34:32.521Z,100605.30
2019-03-01T12:35:36.075Z,100604.97
2019-03-01T12:36:39.903Z,100601.88
2019-03-01T12:37:43.552Z,100603.26